Time;durP1;ratioP1;P1;durP2;ratioP2;P2;SDS_P1;SDS_P2;PMS_P1;PMS_P2;Temp;Humidity;BMP_temperature;BMP_pressure;BME280_temperature;BME280_humidity;BME280_pressure;Samples;Min_cycle;Max_cycle;Signal;HPM_P1;HPM_P2
2021/12/27 00:00:18;;;;;;;12.00;8.53;;;12.20;68.90;;;;;;5090316;28;20492;-57
2021/12/27 00:02:45;;;;;;;10.90;8.67;;;12.20;70.00;;;;;;5088510;28;20433;-55
2021/12/27 00:05:11;;;;;;;9.67;7.60;;;12.20;69.10;;;;;;5090177;28;20921;-56
2021/12/27 00:07:36;;;;;;;11.83;7.70;;;12.30;68.80;;;;;;5091868;28;20447;-55
2021/12/27 00:10:04;;;;;;;9.00;6.90;;;12.40;68.60;;;;;;5093852;28;20765;-55
2021/12/27 00:12:30;;;;;;;9.23;7.40;;;12.40;68.50;;;;;;5080319;28;20207;-56
2021/12/27 00:14:55;;;;;;;10.53;7.70;;;12.40;68.70;;;;;;5093642;28;20429;-56
2021/12/27 00:17:21;;;;;;;8.73;7.40;;;12.50;69.20;;;;;;5094545;28;20188;-56
2021/12/27 00:19:47;;;;;;;9.40;7.40;;;12.50;68.30;;;;;;5094235;28;20231;-55
2021/12/27 00:22:13;;;;;;;9.37;6.90;;;12.60;68.20;;;;;;5093502;28;20230;-56
2021/12/27 00:24:39;;;;;;;8.63;7.63;;;12.60;68.10;;;;;;5094049;28;20449;-56
2021/12/27 00:27:05;;;;;;;9.80;8.13;;;12.60;67.90;;;;;;5093274;28;20421;-55
2021/12/27 00:29:31;;;;;;;8.23;7.37;;;12.70;67.90;;;;;;5092284;28;20543;-56
2021/12/27 00:31:57;;;;;;;8.80;7.37;;;12.70;67.70;;;;;;5093399;28;20474;-55
2021/12/27 00:34:22;;;;;;;9.77;7.30;;;12.70;67.80;;;;;;5093508;28;20286;-56
2021/12/27 00:36:48;;;;;;;9.17;7.30;;;12.70;67.80;;;;;;5093366;28;20191;-56
2021/12/27 00:39:13;;;;;;;9.50;6.97;;;12.60;68.80;;;;;;5093470;28;20279;-56
2021/12/27 00:41:39;;;;;;;8.17;6.50;;;12.60;68.50;;;;;;5092000;28;20191;-58
2021/12/27 00:44:05;;;;;;;7.33;6.63;;;12.50;68.90;;;;;;5093522;28;20214;-56
2021/12/27 00:46:30;;;;;;;8.40;6.87;;;12.50;69.20;;;;;;5093441;28;20191;-56
2021/12/27 00:48:56;;;;;;;6.93;5.87;;;12.40;69.50;;;;;;5086767;28;20682;-56
2021/12/27 00:51:21;;;;;;;7.63;6.37;;;12.50;69.60;;;;;;5093232;28;20191;-56
2021/12/27 00:53:47;;;;;;;6.80;6.10;;;12.40;69.50;;;;;;5093248;28;20199;-56
2021/12/27 00:56:13;;;;;;;8.10;7.30;;;12.50;69.30;;;;;;5091399;28;20214;-55
2021/12/27 00:58:38;;;;;;;7.87;7.07;;;12.50;69.90;;;;;;5093377;28;20193;-56
2021/12/27 01:01:04;;;;;;;8.73;6.90;;;12.60;68.90;;;;;;5092904;28;20278;-56
2021/12/27 01:03:30;;;;;;;7.43;6.73;;;12.60;68.90;;;;;;5093251;28;20195;-56
2021/12/27 01:05:55;;;;;;;8.73;7.37;;;12.40;68.60;;;;;;5092885;28;20948;-55
2021/12/27 01:08:21;;;;;;;10.20;7.63;;;12.40;69.40;;;;;;5092997;28;20633;-56
2021/12/27 01:15:51;;;;;;;11.27;8.10;;;12.20;69.60;;;;;;5092735;28;20191;-56
2021/12/27 01:18:19;;;;;;;9.30;8.13;;;12.00;70.30;;;;;;5091602;28;20437;-56
2021/12/27 01:20:45;;;;;;;9.80;7.97;;;12.00;70.70;;;;;;5092374;28;20520;-56
2021/12/27 01:23:11;;;;;;;11.57;8.20;;;12.10;70.30;;;;;;5091187;28;20425;-55
2021/12/27 01:25:37;;;;;;;10.57;7.50;;;12.00;70.50;;;;;;5092438;28;20998;-56
2021/12/27 01:28:04;;;;;;;10.97;8.03;;;12.10;70.30;;;;;;5092857;28;20437;-57
2021/12/27 01:30:36;;;;;;;9.60;8.10;;;12.20;70.00;;;;;;5092232;28;20972;-56
2021/12/27 01:33:03;;;;;;;9.13;7.63;;;12.20;69.70;;;;;;5092506;28;20425;-56
2021/12/27 01:35:28;;;;;;;9.07;7.50;;;12.20;69.30;;;;;;5092194;28;20422;-56
2021/12/27 01:37:54;;;;;;;10.10;7.87;;;12.20;69.10;;;;;;5092901;28;20413;-56
2021/12/27 01:40:25;;;;;;;10.23;6.90;;;12.40;69.00;;;;;;5092104;28;20261;-56
2021/12/27 01:43:05;;;;;;;13.50;8.40;;;12.40;68.80;;;;;;5092134;28;20421;-56
2021/12/27 01:45:31;;;;;;;10.37;8.17;;;12.30;68.80;;;;;;5092127;28;20478;-56
2021/12/27 01:47:57;;;;;;;8.93;7.90;;;12.20;69.20;;;;;;5086497;28;20413;-56
2021/12/27 01:50:23;;;;;;;7.97;6.93;;;12.20;69.20;;;;;;5090200;28;20483;-55
2021/12/27 01:52:50;;;;;;;9.93;7.70;;;12.20;69.10;;;;;;5091959;28;20252;-57
2021/12/27 01:55:16;;;;;;;7.60;6.90;;;12.20;68.90;;;;;;5092021;28;20438;-56
2021/12/27 01:57:42;;;;;;;7.83;7.10;;;12.20;69.80;;;;;;5092314;28;20947;-55
2021/12/27 02:00:08;;;;;;;10.30;8.37;;;12.10;69.00;;;;;;5091884;28;20825;-56
2021/12/27 02:02:34;;;;;;;9.73;7.47;;;12.00;69.40;;;;;;5091751;28;20439;-56
2021/12/27 02:04:59;;;;;;;8.60;7.50;;;11.90;69.80;;;;;;5091781;28;20512;-55
2021/12/27 02:07:25;;;;;;;8.53;6.80;;;11.70;70.60;;;;;;5092132;28;20194;-56
2021/12/27 02:10:01;;;;;;;8.33;7.10;;;11.70;71.10;;;;;;5092136;28;20279;-55
2021/12/27 02:12:28;;;;;;;8.23;7.00;;;11.80;70.90;;;;;;5078803;28;20207;-56
2021/12/27 02:14:54;;;;;;;9.13;6.00;;;11.80;70.80;;;;;;5091510;28;20439;-56
2021/12/27 02:17:20;;;;;;;6.10;5.50;;;12.00;70.30;;;;;;5090494;28;20425;-56
2021/12/27 02:19:53;;;;;;;10.20;7.10;;;12.00;70.10;;;;;;5091890;28;20902;-55
2021/12/27 02:22:19;;;;;;;8.40;7.50;;;11.90;70.60;;;;;;5091221;28;20966;-56
2021/12/27 02:24:44;;;;;;;9.27;7.50;;;12.00;70.30;;;;;;5091942;28;20794;-54
2021/12/27 02:27:15;;;;;;;8.60;7.70;;;12.10;69.50;;;;;;5091456;28;20425;-56
2021/12/27 02:29:42;;;;;;;6.70;5.97;;;11.90;69.90;;;;;;5091454;28;20738;-56
2021/12/27 02:32:08;;;;;;;7.37;6.67;;;12.00;70.30;;;;;;5090377;28;20444;-55
2021/12/27 02:34:33;;;;;;;8.00;6.97;;;11.90;70.20;;;;;;5091789;28;20441;-56
2021/12/27 02:37:02;;;;;;;8.80;7.40;;;11.90;70.20;;;;;;5091251;28;20191;-55
2021/12/27 02:39:30;;;;;;;7.87;6.60;;;11.90;70.60;;;;;;5091384;28;20344;-56
2021/12/27 02:41:56;;;;;;;7.10;5.77;;;12.00;70.40;;;;;;5091095;28;20503;-56
2021/12/27 02:44:22;;;;;;;7.70;6.83;;;12.10;69.80;;;;;;5089532;28;20520;-55
2021/12/27 02:46:47;;;;;;;8.30;6.10;;;12.10;69.50;;;;;;5088781;28;20659;-56
2021/12/27 02:49:13;;;;;;;8.10;6.60;;;12.10;69.50;;;;;;5086909;28;20223;-55
2021/12/27 02:51:39;;;;;;;7.00;6.20;;;12.10;69.70;;;;;;5091117;28;20202;-55
2021/12/27 02:54:04;;;;;;;7.27;6.10;;;12.10;69.50;;;;;;5091092;28;20191;-55
2021/12/27 02:56:30;;;;;;;8.23;6.90;;;12.00;69.40;;;;;;5090735;28;20191;-55
2021/12/27 02:58:57;;;;;;;8.10;6.87;;;12.00;69.90;;;;;;5091289;28;20222;-54
2021/12/27 03:01:24;;;;;;;7.90;7.10;;;12.00;69.60;;;;;;5090663;28;20803;-55
2021/12/27 03:03:51;;;;;;;8.87;7.50;;;12.00;69.50;;;;;;5091069;28;20436;-55
2021/12/27 03:06:18;;;;;;;7.63;6.90;;;12.10;69.70;;;;;;5090904;28;20482;-56
2021/12/27 03:08:45;;;;;;;7.50;6.70;;;12.10;69.00;;;;;;5091354;28;20485;-56
2021/12/27 03:11:12;;;;;;;10.43;7.30;;;12.20;68.90;;;;;;5088799;28;20425;-55
2021/12/27 03:13:40;;;;;;;9.23;7.00;;;12.30;68.60;;;;;;5090579;28;20420;-55
2021/12/27 03:16:12;;;;;;;7.73;6.77;;;12.40;68.20;;;;;;5091084;28;20456;-55
2021/12/27 03:18:41;;;;;;;7.30;6.20;;;12.20;68.20;;;;;;5090623;28;20522;-53
2021/12/27 03:21:07;;;;;;;6.70;5.97;;;12.00;68.60;;;;;;5090496;28;20426;-55
2021/12/27 03:23:34;;;;;;;7.63;6.43;;;11.90;69.50;;;;;;5090837;28;20421;-55
2021/12/27 03:26:00;;;;;;;7.00;6.30;;;11.80;69.50;;;;;;5090574;28;20417;-55
2021/12/27 03:28:27;;;;;;;6.93;6.23;;;11.80;70.20;;;;;;5090783;28;20560;-54
2021/12/27 03:30:52;;;;;;;5.80;4.90;;;11.90;70.10;;;;;;5090451;28;20206;-56
2021/12/27 03:33:21;;;;;;;5.20;4.70;;;11.80;69.90;;;;;;5090464;28;20425;-54
2021/12/27 03:36:02;;;;;;;5.77;5.17;;;11.80;70.40;;;;;;5088852;28;20191;-56
2021/12/27 03:38:41;;;;;;;5.50;5.00;;;11.90;69.80;;;;;;5091259;28;20848;-55
2021/12/27 03:41:12;;;;;;;4.90;4.40;;;12.00;69.80;;;;;;5090125;28;20486;-55
2021/12/27 03:43:38;;;;;;;5.40;4.90;;;12.20;69.50;;;;;;5093653;28;20425;-55
2021/12/27 03:46:04;;;;;;;4.63;4.00;;;12.20;68.70;;;;;;5094040;28;20493;-55
2021/12/27 03:48:29;;;;;;;4.80;4.40;;;12.10;68.80;;;;;;5087874;28;20465;-55
2021/12/27 03:50:55;;;;;;;5.23;4.43;;;12.20;68.60;;;;;;5094229;28;20191;-55
2021/12/27 03:53:21;;;;;;;4.07;3.67;;;12.30;68.30;;;;;;5094508;28;20230;-56
2021/12/27 03:55:46;;;;;;;3.90;3.30;;;12.40;68.20;;;;;;5093974;28;20202;-56
2021/12/27 03:58:24;;;;;;;5.23;4.73;;;12.40;67.90;;;;;;5094811;28;20290;-56
2021/12/27 04:03:19;;;;;;;4.83;3.80;;;12.50;67.60;;;;;;5092552;28;20429;-55
2021/12/27 04:05:45;;;;;;;6.23;4.40;;;12.30;67.50;;;;;;5093612;28;20436;-55
2021/12/27 04:08:11;;;;;;;5.03;3.70;;;12.00;68.60;;;;;;5094711;28;20277;-56
2021/12/27 04:10:39;;;;;;;4.63;4.20;;;11.80;69.00;;;;;;5093937;28;20524;-54
2021/12/27 04:13:06;;;;;;;5.67;5.07;;;11.90;69.00;;;;;;5094638;28;20188;-56
2021/12/27 04:15:31;;;;;;;5.80;5.30;;;11.80;69.70;;;;;;5093779;28;20428;-55
2021/12/27 04:17:57;;;;;;;5.27;4.60;;;11.80;69.70;;;;;;5094260;28;20879;-56
2021/12/27 04:20:23;;;;;;;6.10;5.20;;;12.00;69.50;;;;;;5093633;28;20235;-55
2021/12/27 04:22:50;;;;;;;7.30;5.60;;;12.10;69.10;;;;;;5093887;28;20195;-55
2021/12/27 04:25:18;;;;;;;5.13;4.60;;;12.20;68.50;;;;;;5093391;28;20195;-55
2021/12/27 04:27:44;;;;;;;6.20;5.37;;;12.20;68.30;;;;;;5094267;28;20413;-56
2021/12/27 04:30:11;;;;;;;7.47;5.80;;;12.10;68.60;;;;;;5091860;28;20976;-55
2021/12/27 04:32:36;;;;;;;6.03;5.40;;;12.10;68.50;;;;;;5093770;28;20430;-55
2021/12/27 04:35:03;;;;;;;6.30;5.30;;;12.10;68.20;;;;;;5093137;28;20422;-54
2021/12/27 04:37:29;;;;;;;6.20;4.80;;;12.20;67.80;;;;;;5093839;28;20206;-55
2021/12/27 04:39:56;;;;;;;4.30;3.90;;;12.00;68.60;;;;;;5093474;28;20429;-55
2021/12/27 04:42:23;;;;;;;5.27;4.77;;;12.00;68.90;;;;;;5093484;28;20195;-55
2021/12/27 04:44:48;;;;;;;7.20;6.40;;;12.10;69.20;;;;;;5093615;28;20421;-55
2021/12/27 04:47:16;;;;;;;7.70;6.60;;;11.90;68.60;;;;;;5087514;28;20437;-55
2021/12/27 04:49:43;;;;;;;6.27;5.67;;;11.80;69.40;;;;;;5093606;28;20689;-54
2021/12/27 04:52:10;;;;;;;7.90;6.70;;;11.60;69.40;;;;;;5092723;28;20422;-55
2021/12/27 04:54:36;;;;;;;10.80;6.47;;;11.50;70.20;;;;;;5092940;28;20436;-55
2021/12/27 04:57:02;;;;;;;7.80;6.47;;;11.20;71.10;;;;;;5091300;28;20418;-55
2021/12/27 04:59:28;;;;;;;7.23;6.10;;;11.40;71.90;;;;;;5093527;28;20913;-55
2021/12/27 05:01:54;;;;;;;7.47;6.73;;;11.60;71.30;;;;;;5092486;28;20429;-56
2021/12/27 05:04:19;;;;;;;7.70;6.40;;;11.60;70.60;;;;;;5092248;28;20623;-55
2021/12/27 05:06:45;;;;;;;6.63;5.93;;;11.50;71.30;;;;;;5092883;28;20820;-56
2021/12/27 05:09:11;;;;;;;6.90;5.70;;;11.20;71.60;;;;;;5093618;28;20278;-55
2021/12/27 05:11:37;;;;;;;7.43;6.47;;;11.30;71.70;;;;;;5093019;28;20191;-55
2021/12/27 05:14:03;;;;;;;6.80;5.83;;;11.30;71.50;;;;;;5092729;28;20432;-56
2021/12/27 05:16:28;;;;;;;8.43;6.90;;;11.30;71.70;;;;;;5092793;28;20211;-55
2021/12/27 05:18:54;;;;;;;7.00;6.20;;;11.30;71.80;;;;;;5093359;28;20543;-55
2021/12/27 05:21:19;;;;;;;7.60;6.43;;;11.20;71.70;;;;;;5092640;28;20191;-56
2021/12/27 05:23:45;;;;;;;8.40;6.77;;;10.90;72.80;;;;;;5091244;28;20245;-55
2021/12/27 05:26:11;;;;;;;8.13;6.43;;;10.90;73.40;;;;;;5092393;28;20218;-55
2021/12/27 05:28:36;;;;;;;8.20;6.17;;;10.90;73.20;;;;;;5092953;28;20226;-55
2021/12/27 05:31:02;;;;;;;7.67;6.50;;;10.90;73.40;;;;;;5092388;28;20330;-55
2021/12/27 05:33:28;;;;;;;8.03;6.93;;;10.90;73.60;;;;;;5092354;28;20199;-56
2021/12/27 05:35:53;;;;;;;7.30;6.50;;;10.90;73.60;;;;;;5092324;28;20646;-55
2021/12/27 05:38:19;;;;;;;7.43;6.60;;;11.00;73.00;;;;;;5092735;28;20198;-55
2021/12/27 05:40:44;;;;;;;8.03;7.00;;;11.10;72.50;;;;;;5092203;28;20267;-54
2021/12/27 05:43:10;;;;;;;9.13;7.00;;;11.10;72.00;;;;;;5092574;28;20206;-55
2021/12/27 05:45:36;;;;;;;7.93;7.10;;;11.20;72.40;;;;;;5092038;28;20650;-55
2021/12/27 05:48:03;;;;;;;9.70;6.93;;;11.40;71.80;;;;;;5086344;28;20191;-55
2021/12/27 05:50:29;;;;;;;8.53;6.60;;;11.40;71.40;;;;;;5090139;28;20516;-55
2021/12/27 05:52:55;;;;;;;8.70;6.77;;;11.50;71.10;;;;;;5092198;28;20464;-55
2021/12/27 05:55:21;;;;;;;7.40;6.57;;;11.50;70.90;;;;;;5091863;28;20265;-56
2021/12/27 05:57:47;;;;;;;7.40;6.57;;;11.70;70.70;;;;;;5092353;28;20183;-56
2021/12/27 06:00:14;;;;;;;7.40;6.57;;;11.70;70.10;;;;;;5091844;28;20480;-55
2021/12/27 06:02:41;;;;;;;6.67;5.97;;;11.70;69.60;;;;;;5091672;28;20798;-54
2021/12/27 06:05:07;;;;;;;7.60;6.80;;;11.70;70.00;;;;;;5090771;28;20453;-55
2021/12/27 06:07:33;;;;;;;8.37;7.43;;;11.80;69.90;;;;;;5092274;28;20417;-55
2021/12/27 06:09:59;;;;;;;6.97;6.27;;;11.80;69.40;;;;;;5091475;28;20476;-55
2021/12/27 06:12:24;;;;;;;8.27;6.93;;;11.80;69.30;;;;;;5091859;28;20191;-55
2021/12/27 06:14:50;;;;;;;6.90;6.20;;;11.80;69.50;;;;;;5091971;28;20187;-56
2021/12/27 06:17:16;;;;;;;7.70;6.47;;;11.80;69.50;;;;;;5090024;28;20188;-54
2021/12/27 06:19:41;;;;;;;7.67;6.77;;;11.70;69.80;;;;;;5091726;28;20477;-54
2021/12/27 06:22:07;;;;;;;8.60;7.13;;;11.60;70.70;;;;;;5090893;28;20202;-56
2021/12/27 06:24:33;;;;;;;9.47;7.23;;;11.40;70.50;;;;;;5091976;28;20646;-55
2021/12/27 06:26:59;;;;;;;10.00;7.70;;;11.30;71.00;;;;;;5091270;28;20428;-56
2021/12/27 06:29:24;;;;;;;9.97;7.23;;;11.00;71.60;;;;;;5091891;28;20340;-54
2021/12/27 06:31:50;;;;;;;9.50;7.37;;;10.90;72.50;;;;;;5090869;28;20594;-55
2021/12/27 06:34:16;;;;;;;7.47;6.63;;;10.80;72.80;;;;;;5091628;28;20194;-55
2021/12/27 06:36:42;;;;;;;10.07;7.27;;;10.90;73.40;;;;;;5091082;28;20199;-54
2021/12/27 06:39:08;;;;;;;9.30;6.80;;;10.90;72.60;;;;;;5091756;28;20226;-54
2021/12/27 06:41:34;;;;;;;6.50;5.83;;;11.00;72.80;;;;;;5090308;28;20612;-55
2021/12/27 06:44:00;;;;;;;7.67;5.70;;;11.10;72.10;;;;;;5089399;28;20448;-55
2021/12/27 06:46:26;;;;;;;9.80;6.73;;;11.10;71.40;;;;;;5090783;28;20464;-55
2021/12/27 06:48:52;;;;;;;7.07;5.70;;;11.00;71.10;;;;;;5084878;28;20898;-55
2021/12/27 06:51:18;;;;;;;6.67;5.47;;;11.00;71.40;;;;;;5090931;28;20471;-56
2021/12/27 06:53:44;;;;;;;6.90;5.93;;;10.90;71.80;;;;;;5091284;28;20453;-56
2021/12/27 06:56:09;;;;;;;6.40;5.80;;;10.80;72.30;;;;;;5090794;28;20264;-54
2021/12/27 06:58:35;;;;;;;7.43;6.30;;;10.70;72.60;;;;;;5091436;28;20195;-55
2021/12/27 07:01:01;;;;;;;7.77;6.20;;;10.60;72.90;;;;;;5091030;28;20187;-54
2021/12/27 07:03:27;;;;;;;7.97;6.90;;;10.60;73.30;;;;;;5090916;28;20187;-55
2021/12/27 07:05:52;;;;;;;7.03;6.30;;;10.70;73.00;;;;;;5090561;28;20278;-54
2021/12/27 07:08:19;;;;;;;9.07;6.77;;;10.80;72.10;;;;;;5091384;28;20620;-55
2021/12/27 07:10:45;;;;;;;8.17;6.23;;;10.80;72.00;;;;;;5088910;28;20963;-55
2021/12/27 07:13:10;;;;;;;9.20;7.20;;;10.70;72.30;;;;;;5090840;28;20803;-55
2021/12/27 07:15:44;;;;;;;8.23;6.10;;;10.70;72.30;;;;;;5090220;28;20418;-55
2021/12/27 07:18:20;;;;;;;6.40;5.73;;;10.70;72.00;;;;;;5090951;28;20186;-55
2021/12/27 07:20:46;;;;;;;6.90;5.57;;;10.80;71.30;;;;;;5090555;28;20932;-55
2021/12/27 07:23:12;;;;;;;7.90;6.43;;;10.90;71.00;;;;;;5090555;28;20429;-55
2021/12/27 07:25:38;;;;;;;7.47;6.50;;;11.00;70.60;;;;;;5090577;28;20234;-56
2021/12/27 07:28:03;;;;;;;10.03;7.47;;;11.20;70.00;;;;;;5090939;28;20445;-55
2021/12/27 07:30:30;;;;;;;10.27;7.87;;;11.30;69.30;;;;;;5090426;28;20313;-55
2021/12/27 07:32:57;;;;;;;11.10;8.43;;;11.30;68.60;;;;;;5090330;28;20425;-55
2021/12/27 07:35:24;;;;;;;8.50;6.30;;;11.30;68.30;;;;;;5090360;28;20455;-55
2021/12/27 07:37:49;;;;;;;8.30;7.10;;;11.50;68.90;;;;;;5089356;28;20792;-55
2021/12/27 07:40:15;;;;;;;9.10;6.70;;;12.10;68.90;;;;;;5089026;28;20445;-56
2021/12/27 07:42:41;;;;;;;6.60;5.90;;;13.00;65.50;;;;;;5090608;28;20191;-56
2021/12/27 07:45:07;;;;;;;7.87;7.10;;;13.70;61.20;;;;;;5090445;28;20198;-55
2021/12/27 07:47:33;;;;;;;8.47;5.80;;;14.10;59.50;;;;;;5083777;28;20219;-58
2021/12/27 07:49:59;;;;;;;6.70;6.10;;;14.50;58.00;;;;;;5090526;28;20480;-56
2021/12/27 07:52:24;;;;;;;6.93;6.23;;;15.10;56.70;;;;;;5090323;28;20274;-56
2021/12/27 07:54:50;;;;;;;7.43;6.60;;;15.90;54.50;;;;;;5090782;28;20198;-55
2021/12/27 07:57:16;;;;;;;9.10;7.70;;;15.70;54.30;;;;;;5090229;28;20245;-56
2021/12/27 07:59:42;;;;;;;10.60;7.97;;;15.80;54.10;;;;;;5091009;28;20195;-56
2021/12/27 08:02:10;;;;;;;10.30;7.70;;;15.40;54.60;;;;;;5088030;28;20658;-56
2021/12/27 08:04:36;;;;;;;7.60;6.80;;;15.10;55.30;;;;;;5090676;28;20234;-55
2021/12/27 08:07:03;;;;;;;6.50;5.90;;;14.70;56.20;;;;;;5090415;28;20432;-55
2021/12/27 08:09:29;;;;;;;7.10;6.40;;;14.20;57.10;;;;;;5089295;28;20984;-55
2021/12/27 08:11:54;;;;;;;6.73;6.13;;;13.60;58.30;;;;;;5089495;28;20433;-56
2021/12/27 08:14:20;;;;;;;7.03;6.33;;;13.10;59.70;;;;;;5090720;28;20198;-55
2021/12/27 08:16:46;;;;;;;7.30;5.70;;;12.60;61.50;;;;;;5089976;28;20190;-55
2021/12/27 08:19:11;;;;;;;7.03;6.00;;;12.20;63.70;;;;;;5090519;28;20230;-55
2021/12/27 08:21:37;;;;;;;6.20;5.43;;;12.00;65.00;;;;;;5089587;28;20222;-56
2021/12/27 08:24:05;;;;;;;6.20;5.60;;;11.70;66.40;;;;;;5090787;28;20196;-54
2021/12/27 08:26:30;;;;;;;6.77;5.60;;;11.60;67.40;;;;;;5089729;28;20561;-56
2021/12/27 08:28:57;;;;;;;6.00;5.23;;;11.50;67.80;;;;;;5088847;28;20473;-56
2021/12/27 08:31:23;;;;;;;7.37;6.40;;;11.40;68.30;;;;;;5093728;28;20187;-55
2021/12/27 08:33:49;;;;;;;5.80;5.23;;;11.20;69.30;;;;;;5092523;28;20956;-56
2021/12/27 08:36:15;;;;;;;7.33;6.43;;;11.00;70.10;;;;;;5093230;28;20437;-55
2021/12/27 08:38:44;;;;;;;7.47;6.17;;;11.00;70.90;;;;;;5094334;28;20194;-56
2021/12/27 08:41:09;;;;;;;8.00;6.87;;;11.00;70.90;;;;;;5093284;28;20433;-55
2021/12/27 08:43:35;;;;;;;7.33;6.03;;;11.10;71.50;;;;;;5093796;28;20433;-54
2021/12/27 08:46:01;;;;;;;7.43;6.00;;;11.00;71.50;;;;;;5093123;28;20187;-55
2021/12/27 08:48:27;;;;;;;6.57;5.80;;;11.10;71.60;;;;;;5087061;28;20236;-55
2021/12/27 08:50:53;;;;;;;6.57;5.83;;;11.40;71.10;;;;;;5091888;28;20268;-56
2021/12/27 08:53:18;;;;;;;7.27;5.10;;;11.40;70.80;;;;;;5093402;28;20433;-57
2021/12/27 08:55:44;;;;;;;5.80;4.80;;;11.40;71.00;;;;;;5091303;28;20202;-55
2021/12/27 08:58:09;;;;;;;4.63;4.23;;;11.40;71.60;;;;;;5093912;28;20192;-55
2021/12/27 09:00:35;;;;;;;5.30;4.47;;;11.40;72.20;;;;;;5093020;28;20526;-55
2021/12/27 09:03:01;;;;;;;5.50;4.90;;;11.50;72.30;;;;;;5093147;28;20264;-56
2021/12/27 09:05:26;;;;;;;5.50;5.00;;;11.60;71.70;;;;;;5092922;28;20252;-56
2021/12/27 09:07:52;;;;;;;4.40;4.00;;;11.60;71.50;;;;;;5093274;28;20490;-55
2021/12/27 09:10:18;;;;;;;6.00;5.40;;;11.90;71.30;;;;;;5092456;28;20259;-55
2021/12/27 09:12:44;;;;;;;5.90;5.40;;;11.80;70.90;;;;;;5093389;28;20545;-55
2021/12/27 09:15:10;;;;;;;6.70;5.67;;;11.70;72.20;;;;;;5092729;28;20192;-56
2021/12/27 09:17:36;;;;;;;5.90;5.30;;;11.70;72.60;;;;;;5093045;28;20294;-55
2021/12/27 09:20:04;;;;;;;6.77;5.30;;;11.70;72.80;;;;;;5092545;28;20560;-57
2021/12/27 09:22:31;;;;;;;4.90;4.40;;;11.90;72.80;;;;;;5091224;28;20302;-56
2021/12/27 09:24:56;;;;;;;6.77;5.20;;;12.10;72.00;;;;;;5092603;28;20501;-56
2021/12/27 09:27:22;;;;;;;6.53;5.20;;;12.50;70.80;;;;;;5093088;28;20298;-55
2021/12/27 09:29:49;;;;;;;7.03;5.33;;;12.60;69.50;;;;;;5092709;28;20218;-55
2021/12/27 09:32:15;;;;;;;5.63;5.10;;;12.70;68.10;;;;;;5092264;28;20207;-55
2021/12/27 09:34:41;;;;;;;5.30;4.80;;;12.50;68.10;;;;;;5093260;28;20476;-56
2021/12/27 09:37:07;;;;;;;5.43;4.93;;;12.60;68.20;;;;;;5092223;28;20434;-55
2021/12/27 09:39:33;;;;;;;6.10;5.33;;;12.30;68.90;;;;;;5092478;28;20953;-55
2021/12/27 09:42:00;;;;;;;6.80;4.57;;;12.60;69.10;;;;;;5091701;28;20451;-56
2021/12/27 09:44:25;;;;;;;6.63;5.83;;;12.70;69.00;;;;;;5092643;28;20634;-55
2021/12/27 09:46:51;;;;;;;5.37;4.87;;;13.20;68.80;;;;;;5089336;28;20517;-56
2021/12/27 09:49:19;;;;;;;6.57;5.97;;;13.40;66.10;;;;;;5087316;28;20743;-55
2021/12/27 09:51:46;;;;;;;8.10;7.30;;;13.70;66.60;;;;;;5091928;28;20205;-56
2021/12/27 09:54:13;;;;;;;5.60;5.10;;;13.80;65.10;;;;;;5092474;28;20905;-55
2021/12/27 09:56:40;;;;;;;5.40;4.40;;;14.10;64.80;;;;;;5092023;28;20433;-55
2021/12/27 09:59:05;;;;;;;4.77;4.37;;;14.20;63.50;;;;;;5092077;28;20425;-56
2021/12/27 10:01:31;;;;;;;4.20;3.90;;;14.30;63.70;;;;;;5091253;28;20471;-56
2021/12/27 10:04:00;;;;;;;3.80;3.50;;;14.20;62.50;;;;;;5092248;28;20266;-55
2021/12/27 10:06:26;;;;;;;4.47;3.80;;;14.10;62.80;;;;;;5091739;28;20417;-54
2021/12/27 10:08:55;;;;;;;3.67;3.37;;;14.20;62.40;;;;;;5091858;28;20477;-55
2021/12/27 10:11:36;;;;;;;4.13;3.83;;;14.30;62.70;;;;;;5091331;28;20424;-56
2021/12/27 10:14:11;;;;;;;6.27;5.77;;;14.60;61.80;;;;;;5092019;28;20814;-55
2021/12/27 10:16:41;;;;;;;5.73;4.20;;;14.50;60.80;;;;;;5084428;28;20436;-56
2021/12/27 10:19:09;;;;;;;5.13;4.63;;;14.10;61.10;;;;;;5091192;28;20516;-55
2021/12/27 10:21:35;;;;;;;5.00;4.10;;;14.20;62.10;;;;;;5082218;28;20525;-54
2021/12/27 10:24:10;;;;;;;3.87;3.13;;;14.40;62.30;;;;;;5088531;28;20887;-54
2021/12/27 10:26:37;;;;;;;4.63;4.00;;;14.10;60.80;;;;;;5082107;28;20188;-53
2021/12/27 10:29:15;;;;;;;3.50;3.00;;;14.10;61.50;;;;;;5082428;28;21196;-54
2021/12/27 10:31:50;;;;;;;5.00;3.80;;;13.80;61.10;;;;;;5076783;28;20451;-54
2021/12/27 10:34:16;;;;;;;3.53;3.23;;;13.80;62.10;;;;;;5080305;28;20457;-54
2021/12/27 10:37:09;;;;;;;3.13;2.83;;;13.80;61.70;;;;;;5088276;28;20433;-54
2021/12/27 10:39:54;;;;;;;3.57;3.27;;;13.90;61.30;;;;;;5085655;28;20191;-56
2021/12/27 10:42:29;;;;;;;4.23;3.93;;;14.10;60.70;;;;;;5083564;28;20433;-54
2021/12/27 10:45:01;;;;;;;4.33;3.80;;;14.30;60.40;;;;;;5083383;28;20437;-54
2021/12/27 10:47:33;;;;;;;3.90;3.50;;;14.40;59.80;;;;;;5084539;28;20436;-54
2021/12/27 10:50:08;;;;;;;3.53;3.23;;;14.30;60.20;;;;;;5085206;28;20484;-53
2021/12/27 10:52:41;;;;;;;3.50;3.20;;;14.60;59.90;;;;;;5088667;28;20437;-55
2021/12/27 10:55:07;;;;;;;3.73;3.43;;;14.90;59.50;;;;;;5081339;28;20940;-54
2021/12/27 10:57:33;;;;;;;3.20;3.00;;;14.90;59.30;;;;;;5084050;28;20519;-56
2021/12/27 11:00:35;;;;;;;4.97;3.63;;;15.20;59.40;;;;;;5086706;28;20205;-55
2021/12/27 11:03:02;;;;;;;4.63;3.70;;;16.10;58.10;;;;;;5058494;28;20566;-54
2021/12/27 11:05:30;;;;;;;3.70;3.27;;;16.70;55.70;;;;;;5080298;28;20535;-54
2021/12/27 11:08:03;;;;;;;3.17;2.90;;;16.40;54.90;;;;;;5084987;28;20854;-55
2021/12/27 11:10:31;;;;;;;3.50;3.20;;;16.60;56.10;;;;;;5087941;28;20499;-54
2021/12/27 11:13:00;;;;;;;4.23;2.73;;;16.80;54.90;;;;;;5079023;28;20430;-55
2021/12/27 11:15:31;;;;;;;3.93;3.30;;;17.20;54.50;;;;;;5080648;28;20482;-54
2021/12/27 11:17:57;;;;;;;3.00;2.80;;;17.50;53.90;;;;;;5086381;28;20860;-55
2021/12/27 11:20:24;;;;;;;3.27;3.03;;;17.40;52.70;;;;;;5083962;28;20491;-54
2021/12/27 11:22:53;;;;;;;3.60;3.30;;;17.30;53.40;;;;;;5076870;28;20457;-54
2021/12/27 11:25:36;;;;;;;3.53;3.23;;;16.90;53.60;;;;;;5080094;28;20468;-55
2021/12/27 11:28:03;;;;;;;3.50;3.20;;;16.70;55.10;;;;;;5086613;28;20885;-55
2021/12/27 11:30:32;;;;;;;3.53;3.20;;;16.70;55.40;;;;;;5076517;28;21032;-54
2021/12/27 11:33:00;;;;;;;3.80;3.40;;;16.90;54.90;;;;;;5072353;28;20963;-55
2021/12/27 11:35:29;;;;;;;4.03;3.10;;;16.70;54.80;;;;;;5080086;28;20453;-54
2021/12/27 11:37:57;;;;;;;3.30;2.90;;;16.50;55.10;;;;;;5079963;28;20426;-54
2021/12/27 11:40:23;;;;;;;3.80;3.40;;;16.50;55.10;;;;;;5069215;28;20488;-54
2021/12/27 11:42:57;;;;;;;3.77;3.13;;;16.10;56.00;;;;;;5073804;28;20429;-55
2021/12/27 11:45:43;;;;;;;3.10;2.80;;;15.90;55.70;;;;;;5086564;28;20194;-55
2021/12/27 11:48:15;;;;;;;3.50;2.90;;;15.80;57.10;;;;;;5079422;28;20512;-55
2021/12/27 11:50:59;;;;;;;3.00;2.80;;;15.80;57.00;;;;;;5083399;28;20489;-54
2021/12/27 11:53:29;;;;;;;4.27;3.40;;;15.90;56.70;;;;;;5082630;28;20442;-55
2021/12/27 11:55:54;;;;;;;3.87;3.43;;;15.80;57.10;;;;;;5085665;28;20444;-54
2021/12/27 11:58:42;;;;;;;4.07;3.67;;;15.70;57.60;;;;;;5081045;28;20481;-57
2021/12/27 12:01:22;;;;;;;4.47;3.60;;;15.70;57.60;;;;;;5080647;28;20192;-55
2021/12/27 12:03:49;;;;;;;3.70;3.37;;;15.80;57.50;;;;;;5081270;28;20441;-56
2021/12/27 12:06:41;;;;;;;3.77;3.47;;;15.50;57.30;;;;;;5087557;28;20441;-55
2021/12/27 12:09:18;;;;;;;3.00;2.80;;;15.50;57.80;;;;;;5090214;28;20464;-55
2021/12/27 12:11:46;;;;;;;4.50;4.00;;;15.20;58.20;;;;;;5090460;28;20421;-55
2021/12/27 12:14:35;;;;;;;4.43;3.90;;;15.20;58.50;;;;;;5082691;28;20425;-56
2021/12/27 12:17:04;;;;;;;3.93;3.60;;;15.30;58.10;;;;;;5084331;28;20445;-56
2021/12/27 12:19:43;;;;;;;3.70;3.03;;;15.30;58.80;;;;;;5087165;28;20496;-56
2021/12/27 12:22:38;;;;;;;3.80;3.27;;;15.50;58.40;;;;;;5078605;28;20470;-56
2021/12/27 12:25:06;;;;;;;3.90;3.57;;;15.60;58.50;;;;;;5087278;28;20493;-55
2021/12/27 12:27:31;;;;;;;3.93;3.27;;;15.70;58.30;;;;;;5081188;28;20441;-55
2021/12/27 12:29:58;;;;;;;4.10;3.70;;;15.60;58.10;;;;;;5088447;28;20491;-56
2021/12/27 12:32:23;;;;;;;3.60;3.23;;;15.30;57.90;;;;;;5084728;28;20222;-55
2021/12/27 12:34:49;;;;;;;3.67;3.37;;;15.10;58.20;;;;;;5076445;28;20421;-55
2021/12/27 12:37:15;;;;;;;4.40;3.77;;;15.10;58.90;;;;;;5088446;28;20195;-55
2021/12/27 12:39:48;;;;;;;3.73;3.30;;;15.00;59.20;;;;;;5090052;28;20278;-55
2021/12/27 12:42:19;;;;;;;5.47;4.53;;;15.10;59.40;;;;;;5080830;28;20438;-55
2021/12/27 12:45:00;;;;;;;4.80;4.00;;;15.20;59.00;;;;;;5084301;28;20972;-55
2021/12/27 12:47:29;;;;;;;7.00;4.37;;;15.30;59.00;;;;;;5085756;28;20468;-56
2021/12/27 12:49:56;;;;;;;5.80;4.37;;;15.20;58.90;;;;;;5081309;28;20517;-55
2021/12/27 12:52:22;;;;;;;4.33;3.93;;;15.40;59.00;;;;;;5086871;28;20437;-56
2021/12/27 12:54:48;;;;;;;4.53;4.13;;;15.40;58.40;;;;;;5081805;28;20441;-55